ADDS METAR Data INFO
IDs: Format: Raw Decoded Include TAF

Data at: 2158 UTC 24 Feb 2018

PALG 242156Z 28004KT 9SM OVC023 M08/M11 A2983 RMK AO2 SLP299 PWINO FZRANO TSNO RVRNO
PALG 242132Z AUTO 28004KT 9SM -SN BKN023 OVC033 M08/M10 A2982 RMK AO2 P0000 FZRANO
PALG 242056Z 25005KT 5SM FEW031 BKN046 OVC090 M08/M11 A2979 RMK AO2 SLP298 52054 PWINO FZRANO TSNO RVRNO
PALG 241956Z 29004KT 8SM OVC044 M09/M11 A2974 RMK AO2 SLP298 PWINO FZRANO TSNO RVRNO
PALG 241916Z AUTO VRB03KT 9SM -SN SCT020 OVC040 M09/M10 A2972 RMK AO2 SNB07 P0000 FZRANO
PALG 241856Z VRB03KT 10SM BKN020 OVC034 M09/M10 A2970 RMK AO2 SLP297 PWINO FZRANO TSNO RVRNO
PALG 241836Z AUTO VRB03KT 9SM -SN OVC030 M09/M10 A2968 RMK AO2 PRESRR P0000 FZRANO
PALG 241813Z AUTO 00000KT 9SM -SN BKN028 OVC060 M09/M10 A2965 RMK AO2 P0000 FZRANO
PALG 241756Z 24003KT 9SM FEW028 BKN046 OVC060 M08/M09 A2963 RMK AO2 UPB1659E00E01E02E03E04E05E06E07E08E09E10E11E12E13E14E15E16 SLP296 11040 21080 52024 PWINO FZRANO TSNO RVRNO
PALG 241734Z AUTO 26003KT 6SM -SN BR FEW015 BKN030 OVC048 M07/M08 A2961 RMK AO2 UPE1659SNB1659 P0000 FZRANO
PALG 241721Z AUTO 28003KT 6SM -SN BR SCT015 BKN024 OVC050 M07/M08 A2960 RMK AO2 UPE1659SNB1659 P0000 FZRANO
PALG 241706Z AUTO 28004KT 9SM -SN SCT013 SCT027 BKN050 M06/M07 A2959 RMK AO2 UPE1659SNB1659 P0000 FZRANO
PALG 241656Z AUTO 25005KT 8SM UP BKN011 BKN021 OVC027 M05/M06 A2958 RMK AO2 UPB24SNE24 SLP021 P0000 T10501061 FZRANO
PALG 241619Z AUTO 25003KT 9SM -SN BKN011 OVC020 M04/M06 A2957 RMK AO2 P0000 FZRANO
PALG 241611Z AUTO 24003KT 7SM -SN BKN009 OVC020 M04/M06 A2957 RMK AO2 CIG 007V012 P0000 FZRANO
PALG 241606Z VRB05KT 4SM BKN009 OVC020 M04/M06 A2956 RMK AO2 SLP296 PWINO FZRANO TSNO RVRNO
PALG 241604Z VRB05KT 2SM BKN009 OVC020 M04/M06 A2957 RMK AO2 SLP296 PWINO FZRANO TSNO RVRNO
PALG 241603Z AUTO VRB05KT 2SM -SN BR BKN009 OVC020 M04/M06 A2957 RMK AO2 P0000 FZRANO
PALG 241556Z AUTO VRB04KT 1SM -SN BR OVC009 M04/M06 A2956 RMK AO2 CIG 007V013 SLP016 P0000 T10441056 FZRANO
PALG 241551Z AUTO VRB06KT 1SM -SN BR OVC009 M04/M06 A2956 RMK AO2 CIG 007V013 P0000 FZRANO
PALG 241535Z AUTO 30005KT 1 1/2SM -SN BR OVC011 M05/M06 A2955 RMK AO2 P0000 FZRANO
PALG 241507Z AUTO 27004KT 1 1/4SM -SN BR OVC009 M06/M06 A2956 RMK AO2 P0000 FZRANO
PALG 241456Z 27003KT 1SM OVC009 M06/M07 A2956 RMK AO2 SLP296 52010 PWINO FZRANO TSNO RVRNO
PALG 241452Z AUTO 26003KT 1SM -SN BR OVC009 M06/M07 A2956 RMK AO2 P0000 FZRANO
PALG 241439Z AUTO 28003KT 1 1/4SM -SN BR OVC009 M06/M07 A2957 RMK AO2 P0000 FZRANO
PALG 241423Z AUTO 00000KT 1SM -SN BR OVC009 M06/M07 A2956 RMK AO2 CIG 008V012 P0000 FZRANO
PALG 241356Z 28004KT 1 3/4SM OVC011 M06/M07 A2956 RMK AO2 SLP296 PWINO FZRANO TSNO RVRNO
PALG 241331Z 00000KT 1 3/4SM BKN013 BKN018 OVC024 M06/M07 A2956 RMK AO2 SLP296 PWINO FZRANO TSNO RVRNO
PALG 241330Z AUTO 00000KT 1 3/4SM -SN BR BKN013 BKN018 OVC024 M06/M07 A2956 RMK AO2 P0000 FZRANO
PALG 241325Z 28004KT 2 1/2SM SCT013 BKN018 OVC022 M06/M06 A2956 RMK AO2 SLP296 PWINO FZRANO TSNO RVRNO
PALG 241323Z 28003KT 3SM FEW010 BKN016 OVC022 M06/M06 A2956 RMK AO2 SLP296 PWINO FZRANO TSNO RVRNO
PALG 241322Z VRB03KT 2 1/2SM FEW010 BKN016 OVC022 M05/M06 A2956 RMK AO2 SLP296 PWINO FZRANO TSNO RVRNO
PALG 241320Z 29004KT 3SM BKN016 OVC024 M05/M06 A2955 RMK AO2 SLP296 PWINO FZRANO TSNO RVRNO
PALG 241256Z AUTO 28004KT 2SM -SN BR FEW012 OVC020 M05/M06 A2955 RMK AO2 SLP010 P0000 T10501061 FZRANO
PALG 241248Z AUTO 28005KT 2SM -SN BR SCT010 OVC022 M05/M06 A2954 RMK AO2 P0000 FZRANO
PALG 241243Z 29003KT 2SM SCT010 OVC022 M05/M06 A2954 RMK AO2 SLP295 PWINO FZRANO TSNO RVRNO
PALG 241233Z AUTO 28004KT 1 1/2SM -SN BR BKN010 OVC022 M04/M06 A2954 RMK AO2 CIG 008V012 P0000 FZRANO
PALG 241228Z 28006KT 1 3/4SM OVC010 M04/M06 A2954 RMK AO2 SLP295 PWINO FZRANO TSNO RVRNO
PALG 241225Z 28004KT 2 1/2SM OVC010 M04/M05 A2954 RMK AO2 SLP295 PWINO FZRANO TSNO RVRNO
PALG 241220Z 26004KT 3SM OVC012 M04/M05 A2954 RMK AO2 SLP295 PWINO FZRANO TSNO RVRNO
PALG 241205Z AUTO 25005KT 2 1/2SM -SN BR OVC012 M04/M05 A2953 RMK AO2 P0000 FZRANO
PALG 241200Z 27004KT 2SM OVC012 M04/M05 A2953 RMK AO2 SLP295 PWINO FZRANO TSNO RVRNO
PALG 241156Z 26004KT 1 1/2SM OVC012 M04/M05 A2953 RMK AO2 SLP295 P0999 62000 72000 11010 21060 52014 PWINO FZRANO TSNO RVRNO
PALG 241149Z AUTO 26005KT 1 1/2SM -SN BR OVC010 M04/M05 A2953 RMK AO2 CIG 008V013 P0000 FZRANO
PALG 241144Z 25005KT 1 3/4SM OVC010 M03/M04 A2952 RMK AO2 SLP295 P0999 PWINO FZRANO TSNO RVRNO
PALG 241138Z AUTO 26004KT 2SM -SN BR OVC010 M03/M04 A2952 RMK AO2 CIG 008V014 P0000 FZRANO
PALG 241133Z 28006KT 2SM OVC010 M03/M04 A2952 RMK AO2 SLP295 P0999 PWINO FZRANO TSNO RVRNO
PALG 241114Z AUTO 25007KT 1 1/2SM -SN BR OVC010 M03/M04 A2951 RMK AO2 CIG 006V012 P0000 FZRANO
PALG 241109Z 25008KT 1 3/4SM OVC010 M03/M03 A2951 RMK AO2 SLP295 P0999 PWINO FZRANO TSNO RVRNO
PALG 241107Z AUTO 25008KT 2SM -SN BR OVC010 M02/M03 A2951 RMK AO2 CIG 006V013 P0000 FZRANO
PALG 241100Z 24011KT 2 1/2SM BKN008 OVC012 M02/M03 A2951 RMK AO2 SLP295 P0999 PWINO FZRANO TSNO RVRNO
PALG 241059Z AUTO 25011G16KT 2 1/2SM -SN BR BKN008 OVC012 M02/M03 A2951 RMK AO2 VIS 1 3/4V5 P0000 FZRANO
PALG 241056Z AUTO 25009G16KT 3SM -SN BR OVC010 M02/M03 A2951 RMK AO2 CIG 006V014 SLP997 P0001 T10171028 FZRANO
PALG 241051Z AUTO 25009G16KT 4SM -SN BR OVC008 M02/M02 A2950 RMK AO2 CIG 004V014 P0001 FZRANO
PALG 241046Z 23011G16KT 3SM OVC008 M01/M02 A2950 RMK AO2 SLP295 P0998 PWINO FZRANO TSNO RVRNO
PALG 241035Z AUTO 24014G21KT 2SM -SN BR BKN006 OVC010 M01/M02 A2950 RMK AO2 P0001 FZRANO
PALG 241030Z 25012KT 2SM OVC006 M01/M02 A2950 RMK AO2 SLP295 P0998 PWINO FZRANO TSNO RVRNO
PALG 241016Z AUTO 22009G14KT 1 1/2SM -SN BR OVC006 M01/M01 A2949 RMK AO2 CIG 005V009 P0001 FZRANO
PALG 241011Z 23007KT 1 3/4SM OVC008 M01/M02 A2949 RMK AO2 SLP295 P0997 PWINO FZRANO TSNO RVRNO
PALG 241000Z 11006KT 2SM OVC008 M03/M04 A2949 RMK AO2 SLP295 P0997 PWINO FZRANO TSNO RVRNO
PALG 240958Z 10004KT 1 3/4SM OVC008 M03/M04 A2949 RMK AO2 SLP295 P0997 PWINO FZRANO TSNO RVRNO
PALG 240956Z AUTO 08004KT 2SM -SN BR OVC008 M03/M04 A2949 RMK AO2 CIG 005V010 SLP992 P0003 T10331039 FZRANO
PALG 240951Z VRB04KT 2 1/2SM OVC008 M03/M03 A2949 RMK AO2 SLP295 P0003 PWINO FZRANO TSNO RVRNO
PALG 240934Z VRB03KT 3SM OVC008 M04/M06 A2949 RMK AO2 SLP295 P0001 PWINO FZRANO TSNO RVRNO
PALG 240933Z AUTO VRB03KT 3SM -SN BR OVC008 M04/M06 A2949 RMK AO2 P0001 FZRANO
PALG 240930Z 11007KT 090V160 2SM OVC008 M04/M06 A2949 RMK AO2 SLP295 P0001 PWINO FZRANO TSNO RVRNO
PALG 240925Z AUTO VRB04KT 1 1/2SM -SN BR BKN008 OVC011 M04/M06 A2949 RMK AO2 CIG 007V010 P0001 FZRANO
PALG 240856Z AUTO 09008KT 1 1/2SM -SN BR BKN011 OVC017 M05/M06 A2949 RMK AO2 SLP992 P0000 60000 T10501061 410331067 56034 FZRANO
PALG 240825Z AUTO 08014KT 1 1/4SM -SN BR OVC008 M06/M07 A2949 RMK AO2 CIG 006V011 P0000 FZRANO
PALG 240820Z 09013KT 1SM OVC008 M06/M07 A2950 RMK AO2 SLP295 PWINO FZRANO TSNO RVRNO
PALG 240808Z AUTO 09010G18KT 3/4SM -SN BR OVC008 M06/M07 A2950 RMK AO2 CIG 006V009 P0000 FZRANO
PALG 240803Z 08012G17KT 3/4SM OVC008 M06/M07 A2950 RMK AO2 SLP295 PWINO FZRANO TSNO RVRNO
PALG 240756Z AUTO 08009G18KT 1SM -SN BR OVC008 M06/M07 A2950 RMK AO2 CIG 007V011 SLP996 P0000 T10611072 FZRANO
PALG 240742Z AUTO 08009G17KT 1SM -SN BR OVC010 M06/M07 A2951 RMK AO2 CIG 008V014 P0000 FZRANO
PALG 240700Z AUTO 08010G16KT 1 1/2SM -SN BR BKN014 OVC020 M06/M08 A2954 RMK AO2 P0000 FZRANO
PALG 240659Z 08010KT 1 3/4SM SCT014 OVC020 M06/M08 A2954 RMK AO2 SLP296 PWINO FZRANO TSNO RVRNO
PALG 240656Z AUTO 08011G17KT 2SM -SN BR SCT014 OVC020 M06/M08 A2955 RMK AO2 SLP010 P0000 T10611078 FZRANO
PALG 240655Z 08011KT 2 1/2SM FEW014 OVC020 M06/M08 A2955 RMK AO2 SLP296 PWINO FZRANO TSNO RVRNO
PALG 240613Z AUTO 07012G18KT 3SM -SN BR FEW008 BKN022 OVC032 M06/M08 A2958 RMK AO2 P0000 FZRANO
PALG 240556Z 08009KT 2 1/2SM BKN019 OVC024 M06/M07 A2959 RMK AO2 SLP296 11030 21060 57041 PWINO FZRANO TSNO RVRNO
PALG 240553Z AUTO 08011G18KT 2 1/2SM -SN BR BKN019 OVC024 M06/M07 A2960 RMK AO2 P0000 FZRANO
PALG 240548Z 08012KT 2SM BKN019 OVC024 M06/M07 A2960 RMK AO2 SLP296 PWINO FZRANO TSNO RVRNO
PALG 240514Z AUTO 08011G19KT 1 1/2SM -SN BR OVC015 M06/M07 A2963 RMK AO2 P0000 FZRANO
PALG 240505Z AUTO 08010G17KT 1 1/2SM -SN BR BKN013 OVC017 M06/M07 A2963 RMK AO2 P0000 FZRANO
PALG 240456Z AUTO 08010G15KT 1SM -SN BR OVC011 M06/M07 A2964 RMK AO2 PRESFR SLP042 P0000 T10611072 FZRANO
PALG 240446Z AUTO 08012G18KT 1 1/4SM -SN BR OVC011 M06/M07 A2965 RMK AO2 P0000 FZRANO
PALG 240432Z AUTO 08013G20KT 1SM -SN BR OVC011 M06/M07 A2966 RMK AO2 P0000 FZRANO
PALG 240356Z AUTO 08012G21KT 1 1/4SM -SN BR BKN013 OVC017 M06/M07 A2969 RMK AO2 SLP057 P0000 T10561072 FZRANO
PALG 240352Z AUTO 08013G20KT 1SM -SN BR BKN013 OVC017 M06/M07 A2968 RMK AO2 P0000 FZRANO
PALG 240347Z 08011G16KT 1SM OVC013 M06/M07 A2969 RMK AO2 SLP297 PWINO FZRANO TSNO RVRNO
PALG 240332Z 08012G17KT 3/4SM BKN013 OVC020 M06/M07 A2970 RMK AO2 SLP297 PWINO FZRANO TSNO RVRNO
PALG 240331Z AUTO 08012G20KT 3/4SM -SN BR BKN013 OVC020 M06/M07 A2970 RMK AO2 P0000 FZRANO
PALG 240320Z AUTO 08010G22KT 1 3/4SM -SN BR BKN013 BKN020 OVC031 M05/M07 A2971 RMK AO2 P0000 FZRANO
PALG 240315Z 08014KT 1 3/4SM BKN013 BKN026 OVC031 M05/M07 A2971 RMK AO2 SLP297 PWINO FZRANO TSNO RVRNO
PALG 240307Z 08013G21KT 2 1/2SM BKN013 BKN028 OVC033 M05/M07 A2971 RMK AO2 SLP297 PWINO FZRANO TSNO RVRNO
PALG 240303Z 08016G21KT 3SM BKN013 BKN026 OVC033 M05/M07 A2971 RMK AO2 SLP297 PWINO FZRANO TSNO RVRNO
PALG 240256Z AUTO 08015G22KT 2 1/2SM -SN BR BKN013 OVC028 M05/M07 A2971 RMK AO2 SLP067 P0000 60000 T10501072 58057 FZRANO
PALG 240240Z AUTO 08015G22KT 2SM -SN BR OVC013 M05/M07 A2973 RMK AO2 P0000 FZRANO
PALG 240235Z 09013KT 2SM OVC013 M05/M07 A2973 RMK AO2 SLP298 PWINO FZRANO TSNO RVRNO
PALG 240220Z AUTO 08012G23KT 1 1/2SM -SN BR OVC013 M05/M07 A2974 RMK AO2 PRESFR P0000 FZRANO
PALG 240211Z AUTO 09016G22KT 1SM -SN BR BKN013 OVC020 M05/M07 A2976 RMK AO2 P0000 FZRANO
PALG 240210Z 09014G22KT 1SM BKN015 BKN020 OVC029 M05/M07 A2976 RMK AO2 SLP298 PWINO FZRANO TSNO RVRNO
PALG 240205Z AUTO 09014G20KT 3/4SM -SN BR BKN015 BKN020 OVC046 M05/M07 A2976 RMK AO2 P0000 FZRANO
PALG 240200Z 08011KT 3/4SM SCT015 BKN020 OVC046 M05/M07 A2977 RMK AO2 SLP298 PWINO FZRANO TSNO RVRNO
PALG 240156Z AUTO 08012G20KT 1SM -SN SCT015 BKN022 OVC055 M04/M08 A2977 RMK AO2 PK WND 08027/0103 SNB41 SLP087 P0000 T10441078 FZRANO
PALG 240152Z 08012KT 1 3/4SM SCT019 BKN045 OVC060 M04/M08 A2977 RMK AO2 SLP298 PWINO FZRANO TSNO RVRNO
PALG 240151Z AUTO 08012G20KT 1 3/4SM -SN SCT019 BKN045 OVC060 M04/M08 A2977 RMK AO2 PK WND 08027/0103 SNB41 PRESFR P0000 FZRANO
PALG 240149Z 08012KT 2 1/2SM FEW019 BKN045 OVC060 M04/M08 A2977 RMK AO2 SLP298 PWINO FZRANO TSNO RVRNO
PALG 240056Z 08011KT 10SM OVC080 M03/M09 A2983 RMK AO2 SLP299 PWINO FZRANO TSNO RVRNO
PALG 232356Z 08013KT 10SM OVC085 M03/M09 A2988 RMK AO2 SLP299 11030 21060 57071 PWINO FZRANO TSNO RVRNO
PALG 232256Z AUTO 08014G24KT 10SM OVC095 M03/M09 A2994 RMK AO2 SLP143 T10331089 FZRANO
PALG 232156Z AUTO 08010G17KT 10SM BKN095 BKN110 M03/M09 A3001 RMK AO2 SLP168 T10331089 FZRANO
PALG 232056Z AUTO 07007KT 10SM FEW110 M04/M07 A3008 RMK AO2 PRESFR SLP192 T10391072 58038 FZRANO
PALG 231956Z 07005KT 10SM FEW017 SCT120 M05/M08 A3015 RMK AO2 SLP302 PWINO FZRANO TSNO RVRNO
PALG 231953Z AUTO 08007KT 10SM SCT017 BKN120 M05/M08 A3015 RMK AO2 FZRANO
PALG 231856Z AUTO 08006KT 10SM BKN017 OVC021 M06/M07 A3020 RMK AO2 SLP230 T10561072 FZRANO
PALG 231756Z 08004KT 10SM OVC021 M06/M07 A3023 RMK AO2 SLP303 57037 PWINO FZRANO TSNO RVRNO
PALG 231656Z AUTO 07003KT 10SM BKN023 OVC036 M06/M07 A3027 RMK AO2 SLP255 T10611072 FZRANO
PALG 231556Z AUTO 00000KT 9SM OVC036 M06/M08 A3031 RMK AO2 SNB44E54 SLP268 P0000 T10611078 FZRANO
PALG 231456Z 00000KT 10SM OVC036 M06/M07 A3034 RMK AO2 SLP304 57024 PWINO FZRANO TSNO RVRNO
PALG 231356Z AUTO 29003KT 10SM SCT027 OVC038 M05/M07 A3036 RMK AO2 SNE44 SLP285 P0000 T10501072 FZRANO
PALG 231256Z 28006KT 9SM FEW019 OVC040 M04/M06 A3038 RMK AO2 SLP304 PWINO FZRANO TSNO RVRNO
PALG 231227Z AUTO 00000KT 9SM -SN SCT020 BKN026 OVC040 M04/M06 A3040 RMK AO2 P0000 FZRANO
PALG 231156Z AUTO 25004KT 9SM -SN OVC040 M04/M06 A3041 RMK AO2 SNB06 SLP302 P0000 60000 70001 T10441061 11044 21050 58006 FZRANO
PALG 231056Z AUTO 00000KT 9SM OVC040 M04/M07 A3041 RMK AO2 SNE56 SLP304 P0000 T10441067 FZRANO